sensor_id;sensor_type;location;lat;lon;timestamp;temperature;humidity
40123;DHT22;25832;45.490;4.912;2022-09-28T00:02:00;11.20;99.90
40123;DHT22;25832;45.490;4.912;2022-09-28T00:04:26;11.30;99.90
40123;DHT22;25832;45.490;4.912;2022-09-28T00:07:11;11.20;99.90
40123;DHT22;25832;45.490;4.912;2022-09-28T00:09:37;11.20;99.90
40123;DHT22;25832;45.490;4.912;2022-09-28T00:12:03;11.20;99.90
40123;DHT22;25832;45.490;4.912;2022-09-28T00:14:28;11.20;99.90
40123;DHT22;25832;45.490;4.912;2022-09-28T00:16:56;11.10;99.90
40123;DHT22;25832;45.490;4.912;2022-09-28T00:19:22;11.10;99.90
40123;DHT22;25832;45.490;4.912;2022-09-28T00:21:48;11.20;99.90
40123;DHT22;25832;45.490;4.912;2022-09-28T00:24:14;11.10;99.90
40123;DHT22;25832;45.490;4.912;2022-09-28T00:26:52;11.20;99.90
40123;DHT22;25832;45.490;4.912;2022-09-28T00:31:44;11.20;99.90
40123;DHT22;25832;45.490;4.912;2022-09-28T00:34:11;11.20;99.90
40123;DHT22;25832;45.490;4.912;2022-09-28T00:36:37;11.20;99.90
40123;DHT22;25832;45.490;4.912;2022-09-28T00:39:07;11.20;99.90
40123;DHT22;25832;45.490;4.912;2022-09-28T00:41:33;11.20;99.90
40123;DHT22;25832;45.490;4.912;2022-09-28T00:46:48;11.20;99.90
40123;DHT22;25832;45.490;4.912;2022-09-28T00:49:16;11.20;99.90
40123;DHT22;25832;45.490;4.912;2022-09-28T00:51:46;11.20;99.90
40123;DHT22;25832;45.490;4.912;2022-09-28T00:54:14;11.10;99.90
40123;DHT22;25832;45.490;4.912;2022-09-28T00:56:42;11.10;99.90
40123;DHT22;25832;45.490;4.912;2022-09-28T00:59:11;11.20;99.90
40123;DHT22;25832;45.490;4.912;2022-09-28T01:01:36;11.20;99.90
40123;DHT22;25832;45.490;4.912;2022-09-28T01:04:02;11.20;99.90
40123;DHT22;25832;45.490;4.912;2022-09-28T01:06:33;11.20;99.90
40123;DHT22;25832;45.490;4.912;2022-09-28T01:09:02;11.30;99.90
40123;DHT22;25832;45.490;4.912;2022-09-28T01:11:32;11.30;99.90
40123;DHT22;25832;45.490;4.912;2022-09-28T01:14:00;11.30;99.90
40123;DHT22;25832;45.490;4.912;2022-09-28T01:16:46;11.30;99.90
40123;DHT22;25832;45.490;4.912;2022-09-28T01:25:44;11.30;99.90
40123;DHT22;25832;45.490;4.912;2022-09-28T01:28:15;11.40;99.90
40123;DHT22;25832;45.490;4.912;2022-09-28T01:31:00;11.40;99.90
40123;DHT22;25832;45.490;4.912;2022-09-28T01:33:37;11.40;99.90
40123;DHT22;25832;45.490;4.912;2022-09-28T01:36:08;11.50;99.90
40123;DHT22;25832;45.490;4.912;2022-09-28T01:39:07;11.50;99.90
40123;DHT22;25832;45.490;4.912;2022-09-28T01:41:34;11.50;99.90
40123;DHT22;25832;45.490;4.912;2022-09-28T01:44:02;11.50;99.90
40123;DHT22;25832;45.490;4.912;2022-09-28T01:46:39;11.50;99.90
40123;DHT22;25832;45.490;4.912;2022-09-28T01:49:16;11.50;99.90
40123;DHT22;25832;45.490;4.912;2022-09-28T01:51:48;11.50;99.90
40123;DHT22;25832;45.490;4.912;2022-09-28T01:54:27;11.50;99.90
40123;DHT22;25832;45.490;4.912;2022-09-28T01:57:04;11.60;99.90
40123;DHT22;25832;45.490;4.912;2022-09-28T01:59:32;11.60;99.90
40123;DHT22;25832;45.490;4.912;2022-09-28T02:02:09;11.60;99.90
40123;DHT22;25832;45.490;4.912;2022-09-28T02:04:57;11.60;99.90
40123;DHT22;25832;45.490;4.912;2022-09-28T02:07:32;11.60;99.90
40123;DHT22;25832;45.490;4.912;2022-09-28T02:10:06;11.70;99.90
40123;DHT22;25832;45.490;4.912;2022-09-28T02:12:38;11.70;99.90
40123;DHT22;25832;45.490;4.912;2022-09-28T02:15:11;11.70;99.90
40123;DHT22;25832;45.490;4.912;2022-09-28T02:17:38;11.80;99.90
40123;DHT22;25832;45.490;4.912;2022-09-28T02:20:05;11.80;99.90
40123;DHT22;25832;45.490;4.912;2022-09-28T02:22:46;11.80;99.90
40123;DHT22;25832;45.490;4.912;2022-09-28T02:28:00;11.80;99.90
40123;DHT22;25832;45.490;4.912;2022-09-28T02:30:29;11.80;99.90
40123;DHT22;25832;45.490;4.912;2022-09-28T02:32:58;11.90;99.90
40123;DHT22;25832;45.490;4.912;2022-09-28T02:35:25;11.80;99.90
40123;DHT22;25832;45.490;4.912;2022-09-28T02:37:51;11.80;99.90
40123;DHT22;25832;45.490;4.912;2022-09-28T02:40:21;11.90;99.90
40123;DHT22;25832;45.490;4.912;2022-09-28T02:43:29;11.90;99.90
40123;DHT22;25832;45.490;4.912;2022-09-28T02:51:17;11.90;99.90
40123;DHT22;25832;45.490;4.912;2022-09-28T02:59:16;12.00;99.90
40123;DHT22;25832;45.490;4.912;2022-09-28T03:02:13;12.00;99.90
40123;DHT22;25832;45.490;4.912;2022-09-28T03:04:53;12.00;99.90
40123;DHT22;25832;45.490;4.912;2022-09-28T03:07:31;12.10;99.90
40123;DHT22;25832;45.490;4.912;2022-09-28T03:10:47;12.10;99.90
40123;DHT22;25832;45.490;4.912;2022-09-28T03:12:48;12.20;99.90
40123;DHT22;25832;45.490;4.912;2022-09-28T03:15:22;12.20;99.90
40123;DHT22;25832;45.490;4.912;2022-09-28T03:17:49;12.20;99.90
40123;DHT22;25832;45.490;4.912;2022-09-28T03:20:15;12.20;99.90
40123;DHT22;25832;45.490;4.912;2022-09-28T03:22:41;12.20;99.90
40123;DHT22;25832;45.490;4.912;2022-09-28T03:25:07;12.20;99.90
40123;DHT22;25832;45.490;4.912;2022-09-28T03:27:33;12.20;99.90
40123;DHT22;25832;45.490;4.912;2022-09-28T03:29:59;12.20;99.90
40123;DHT22;25832;45.490;4.912;2022-09-28T03:32:24;12.20;99.90
40123;DHT22;25832;45.490;4.912;2022-09-28T03:34:50;12.20;99.90
40123;DHT22;25832;45.490;4.912;2022-09-28T03:37:16;12.20;99.90
40123;DHT22;25832;45.490;4.912;2022-09-28T03:39:42;12.10;99.90
40123;DHT22;25832;45.490;4.912;2022-09-28T03:42:07;12.20;99.90
40123;DHT22;25832;45.490;4.912;2022-09-28T03:44:33;12.20;99.90
40123;DHT22;25832;45.490;4.912;2022-09-28T03:46:59;12.20;99.90
40123;DHT22;25832;45.490;4.912;2022-09-28T03:49:24;12.20;99.90
40123;DHT22;25832;45.490;4.912;2022-09-28T03:51:50;12.30;99.90
40123;DHT22;25832;45.490;4.912;2022-09-28T03:54:16;12.30;99.90
40123;DHT22;25832;45.490;4.912;2022-09-28T03:56:41;12.30;99.90
40123;DHT22;25832;45.490;4.912;2022-09-28T03:59:07;12.20;99.90
40123;DHT22;25832;45.490;4.912;2022-09-28T04:01:33;12.30;99.90
40123;DHT22;25832;45.490;4.912;2022-09-28T04:03:59;12.30;99.90
40123;DHT22;25832;45.490;4.912;2022-09-28T04:06:25;12.30;99.90
40123;DHT22;25832;45.490;4.912;2022-09-28T04:08:51;12.40;99.90
40123;DHT22;25832;45.490;4.912;2022-09-28T04:11:16;12.40;99.90
40123;DHT22;25832;45.490;4.912;2022-09-28T04:13:42;12.50;99.90
40123;DHT22;25832;45.490;4.912;2022-09-28T04:16:09;12.50;99.90
40123;DHT22;25832;45.490;4.912;2022-09-28T04:18:35;12.50;99.90
40123;DHT22;25832;45.490;4.912;2022-09-28T04:21:05;12.50;99.90
40123;DHT22;25832;45.490;4.912;2022-09-28T04:23:33;12.50;99.90
40123;DHT22;25832;45.490;4.912;2022-09-28T04:25:59;12.60;99.90
40123;DHT22;25832;45.490;4.912;2022-09-28T04:28:25;12.50;99.90
40123;DHT22;25832;45.490;4.912;2022-09-28T04:31:16;12.50;99.90
40123;DHT22;25832;45.490;4.912;2022-09-28T04:33:42;12.50;99.90
40123;DHT22;25832;45.490;4.912;2022-09-28T04:36:08;12.50;99.90
40123;DHT22;25832;45.490;4.912;2022-09-28T04:38:38;12.50;99.90
40123;DHT22;25832;45.490;4.912;2022-09-28T04:41:05;12.40;99.90
40123;DHT22;25832;45.490;4.912;2022-09-28T04:43:31;12.40;99.90
40123;DHT22;25832;45.490;4.912;2022-09-28T04:45:58;12.40;99.90
40123;DHT22;25832;45.490;4.912;2022-09-28T04:48:25;12.40;99.90
40123;DHT22;25832;45.490;4.912;2022-09-28T04:50:55;12.40;99.90
40123;DHT22;25832;45.490;4.912;2022-09-28T04:53:21;12.40;99.90
40123;DHT22;25832;45.490;4.912;2022-09-28T04:55:58;12.50;99.90
40123;DHT22;25832;45.490;4.912;2022-09-28T04:58:25;12.40;99.90
40123;DHT22;25832;45.490;4.912;2022-09-28T05:00:51;12.40;99.90
40123;DHT22;25832;45.490;4.912;2022-09-28T05:03:19;12.40;99.90
40123;DHT22;25832;45.490;4.912;2022-09-28T05:05:46;12.40;99.90
40123;DHT22;25832;45.490;4.912;2022-09-28T05:08:12;12.40;99.90
40123;DHT22;25832;45.490;4.912;2022-09-28T05:10:38;12.40;99.90
40123;DHT22;25832;45.490;4.912;2022-09-28T05:13:09;12.40;99.90
40123;DHT22;25832;45.490;4.912;2022-09-28T05:15:35;12.40;99.90
40123;DHT22;25832;45.490;4.912;2022-09-28T05:18:02;12.40;99.90
40123;DHT22;25832;45.490;4.912;2022-09-28T05:20:28;12.40;99.90
40123;DHT22;25832;45.490;4.912;2022-09-28T05:22:53;12.50;99.90
40123;DHT22;25832;45.490;4.912;2022-09-28T05:25:19;12.40;99.90
40123;DHT22;25832;45.490;4.912;2022-09-28T05:27:45;12.40;99.90
40123;DHT22;25832;45.490;4.912;2022-09-28T05:30:11;12.50;99.90
40123;DHT22;25832;45.490;4.912;2022-09-28T05:32:40;12.50;99.90
40123;DHT22;25832;45.490;4.912;2022-09-28T05:35:06;12.50;99.90
40123;DHT22;25832;45.490;4.912;2022-09-28T05:37:32;12.50;99.90
40123;DHT22;25832;45.490;4.912;2022-09-28T05:40:01;12.50;99.90
40123;DHT22;25832;45.490;4.912;2022-09-28T05:42:26;12.50;99.90
40123;DHT22;25832;45.490;4.912;2022-09-28T05:44:52;12.60;99.90
40123;DHT22;25832;45.490;4.912;2022-09-28T05:47:18;12.60;99.90
40123;DHT22;25832;45.490;4.912;2022-09-28T05:49:43;12.60;99.90
40123;DHT22;25832;45.490;4.912;2022-09-28T05:52:09;12.70;99.90
40123;DHT22;25832;45.490;4.912;2022-09-28T05:54:34;12.70;99.90
40123;DHT22;25832;45.490;4.912;2022-09-28T05:57:00;12.70;99.90
40123;DHT22;25832;45.490;4.912;2022-09-28T05:59:26;12.70;99.90
40123;DHT22;25832;45.490;4.912;2022-09-28T06:01:51;12.80;99.90
40123;DHT22;25832;45.490;4.912;2022-09-28T06:04:17;12.80;99.90
40123;DHT22;25832;45.490;4.912;2022-09-28T06:06:43;12.80;99.90
40123;DHT22;25832;45.490;4.912;2022-09-28T06:09:08;12.90;99.90
40123;DHT22;25832;45.490;4.912;2022-09-28T06:11:34;12.90;99.90
40123;DHT22;25832;45.490;4.912;2022-09-28T06:14:00;12.90;99.90
40123;DHT22;25832;45.490;4.912;2022-09-28T06:16:25;12.90;99.90
40123;DHT22;25832;45.490;4.912;2022-09-28T06:18:51;13.00;99.90
40123;DHT22;25832;45.490;4.912;2022-09-28T06:21:17;13.00;99.90
40123;DHT22;25832;45.490;4.912;2022-09-28T06:23:42;13.10;99.90
40123;DHT22;25832;45.490;4.912;2022-09-28T06:26:08;13.10;99.90
40123;DHT22;25832;45.490;4.912;2022-09-28T06:28:33;13.10;99.90
40123;DHT22;25832;45.490;4.912;2022-09-28T06:30:59;13.10;99.90
40123;DHT22;25832;45.490;4.912;2022-09-28T06:33:25;13.10;99.90
40123;DHT22;25832;45.490;4.912;2022-09-28T06:35:51;13.20;99.90
40123;DHT22;25832;45.490;4.912;2022-09-28T06:38:17;13.30;99.90
40123;DHT22;25832;45.490;4.912;2022-09-28T06:40:43;13.30;99.90
40123;DHT22;25832;45.490;4.912;2022-09-28T06:43:11;13.40;99.90
40123;DHT22;25832;45.490;4.912;2022-09-28T06:45:40;13.40;99.90
40123;DHT22;25832;45.490;4.912;2022-09-28T06:48:06;13.50;99.90
40123;DHT22;25832;45.490;4.912;2022-09-28T06:50:36;13.60;99.90
40123;DHT22;25832;45.490;4.912;2022-09-28T06:53:05;13.60;99.90
40123;DHT22;25832;45.490;4.912;2022-09-28T06:55:32;13.70;99.90
40123;DHT22;25832;45.490;4.912;2022-09-28T06:57:59;13.80;99.90
40123;DHT22;25832;45.490;4.912;2022-09-28T07:00:30;13.80;99.90
40123;DHT22;25832;45.490;4.912;2022-09-28T07:03:01;13.90;99.90
40123;DHT22;25832;45.490;4.912;2022-09-28T07:05:27;13.90;99.90
40123;DHT22;25832;45.490;4.912;2022-09-28T07:07:55;14.00;99.90
40123;DHT22;25832;45.490;4.912;2022-09-28T07:10:22;14.00;99.90
40123;DHT22;25832;45.490;4.912;2022-09-28T07:12:49;14.10;99.90
40123;DHT22;25832;45.490;4.912;2022-09-28T07:15:16;14.10;99.90
40123;DHT22;25832;45.490;4.912;2022-09-28T07:17:41;14.10;99.90
40123;DHT22;25832;45.490;4.912;2022-09-28T07:20:07;14.20;99.90
40123;DHT22;25832;45.490;4.912;2022-09-28T07:22:33;14.30;99.90
40123;DHT22;25832;45.490;4.912;2022-09-28T07:24:59;14.30;99.90
40123;DHT22;25832;45.490;4.912;2022-09-28T07:27:25;14.40;99.90
40123;DHT22;25832;45.490;4.912;2022-09-28T07:29:51;14.50;99.90
40123;DHT22;25832;45.490;4.912;2022-09-28T07:32:21;14.60;99.90
40123;DHT22;25832;45.490;4.912;2022-09-28T07:34:47;14.60;99.90
40123;DHT22;25832;45.490;4.912;2022-09-28T07:37:14;14.60;99.90
40123;DHT22;25832;45.490;4.912;2022-09-28T07:39:40;14.70;99.90
40123;DHT22;25832;45.490;4.912;2022-09-28T07:42:25;14.70;99.90
40123;DHT22;25832;45.490;4.912;2022-09-28T07:44:58;14.60;99.90
40123;DHT22;25832;45.490;4.912;2022-09-28T07:47:25;14.60;99.90
40123;DHT22;25832;45.490;4.912;2022-09-28T07:49:56;14.60;99.90
40123;DHT22;25832;45.490;4.912;2022-09-28T07:52:23;14.60;99.90
40123;DHT22;25832;45.490;4.912;2022-09-28T07:54:51;14.60;99.90
40123;DHT22;25832;45.490;4.912;2022-09-28T07:57:17;14.60;99.90
40123;DHT22;25832;45.490;4.912;2022-09-28T07:59:44;14.50;99.90
40123;DHT22;25832;45.490;4.912;2022-09-28T08:02:10;14.50;99.90
40123;DHT22;25832;45.490;4.912;2022-09-28T08:04:36;14.60;99.90
40123;DHT22;25832;45.490;4.912;2022-09-28T08:07:02;14.70;99.90
40123;DHT22;25832;45.490;4.912;2022-09-28T08:09:28;14.70;99.90
40123;DHT22;25832;45.490;4.912;2022-09-28T08:11:54;14.80;99.90
40123;DHT22;25832;45.490;4.912;2022-09-28T08:14:20;14.90;99.90
40123;DHT22;25832;45.490;4.912;2022-09-28T08:16:45;15.00;99.90
40123;DHT22;25832;45.490;4.912;2022-09-28T08:19:11;15.10;99.90
40123;DHT22;25832;45.490;4.912;2022-09-28T08:21:37;15.10;99.90
40123;DHT22;25832;45.490;4.912;2022-09-28T08:24:13;15.20;99.90
40123;DHT22;25832;45.490;4.912;2022-09-28T08:26:40;15.20;99.90
40123;DHT22;25832;45.490;4.912;2022-09-28T08:29:05;15.20;99.90
40123;DHT22;25832;45.490;4.912;2022-09-28T08:31:32;15.30;99.90
40123;DHT22;25832;45.490;4.912;2022-09-28T08:33:58;15.30;99.90
40123;DHT22;25832;45.490;4.912;2022-09-28T08:36:23;15.50;99.90
40123;DHT22;25832;45.490;4.912;2022-09-28T08:38:49;15.60;99.90
40123;DHT22;25832;45.490;4.912;2022-09-28T08:44:37;15.90;99.90
40123;DHT22;25832;45.490;4.912;2022-09-28T08:47:10;16.20;99.90
40123;DHT22;25832;45.490;4.912;2022-09-28T08:50:00;16.40;99.90
40123;DHT22;25832;45.490;4.912;2022-09-28T08:52:30;16.60;99.90
40123;DHT22;25832;45.490;4.912;2022-09-28T08:55:10;16.70;99.90
40123;DHT22;25832;45.490;4.912;2022-09-28T08:57:47;16.70;99.90
40123;DHT22;25832;45.490;4.912;2022-09-28T09:00:28;16.70;99.90
40123;DHT22;25832;45.490;4.912;2022-09-28T09:02:56;16.70;99.90
40123;DHT22;25832;45.490;4.912;2022-09-28T09:05:38;16.60;99.90
40123;DHT22;25832;45.490;4.912;2022-09-28T09:10:58;16.50;99.90
40123;DHT22;25832;45.490;4.912;2022-09-28T09:19:53;16.40;99.90
40123;DHT22;25832;45.490;4.912;2022-09-28T09:25:16;16.30;99.90
40123;DHT22;25832;45.490;4.912;2022-09-28T09:33:45;16.20;99.90
40123;DHT22;25832;45.490;4.912;2022-09-28T09:39:27;16.20;99.90
40123;DHT22;25832;45.490;4.912;2022-09-28T09:47:54;16.10;99.90
40123;DHT22;25832;45.490;4.912;2022-09-28T09:50:24;16.10;99.90
40123;DHT22;25832;45.490;4.912;2022-09-28T09:55:46;16.10;99.90
40123;DHT22;25832;45.490;4.912;2022-09-28T09:58:32;16.20;99.90
40123;DHT22;25832;45.490;4.912;2022-09-28T10:01:13;16.30;99.90
40123;DHT22;25832;45.490;4.912;2022-09-28T10:03:42;16.40;99.90
40123;DHT22;25832;45.490;4.912;2022-09-28T10:06:15;16.40;99.90
40123;DHT22;25832;45.490;4.912;2022-09-28T10:08:52;16.50;99.90
40123;DHT22;25832;45.490;4.912;2022-09-28T10:11:30;16.70;99.90
40123;DHT22;25832;45.490;4.912;2022-09-28T10:13:57;16.90;99.90
40123;DHT22;25832;45.490;4.912;2022-09-28T10:16:22;17.00;99.90
40123;DHT22;25832;45.490;4.912;2022-09-28T10:18:48;17.30;99.90
40123;DHT22;25832;45.490;4.912;2022-09-28T10:21:16;17.50;99.90
40123;DHT22;25832;45.490;4.912;2022-09-28T10:23:44;17.70;99.90
40123;DHT22;25832;45.490;4.912;2022-09-28T10:26:24;17.90;99.90
40123;DHT22;25832;45.490;4.912;2022-09-28T10:31:41;18.50;99.90
40123;DHT22;25832;45.490;4.912;2022-09-28T10:34:10;18.70;99.90
40123;DHT22;25832;45.490;4.912;2022-09-28T10:37:00;18.80;99.90
40123;DHT22;25832;45.490;4.912;2022-09-28T10:39:32;18.90;99.90
40123;DHT22;25832;45.490;4.912;2022-09-28T10:41:59;19.00;99.90
40123;DHT22;25832;45.490;4.912;2022-09-28T10:44:30;19.00;99.90
40123;DHT22;25832;45.490;4.912;2022-09-28T10:47:03;19.10;99.90
40123;DHT22;25832;45.490;4.912;2022-09-28T10:49:43;19.10;99.90
40123;DHT22;25832;45.490;4.912;2022-09-28T10:54:55;19.00;99.90
40123;DHT22;25832;45.490;4.912;2022-09-28T10:57:47;19.00;99.90
40123;DHT22;25832;45.490;4.912;2022-09-28T11:00:36;19.00;99.90
40123;DHT22;25832;45.490;4.912;2022-09-28T11:03:04;19.10;99.90
40123;DHT22;25832;45.490;4.912;2022-09-28T11:05:30;19.10;99.90
40123;DHT22;25832;45.490;4.912;2022-09-28T11:07:57;19.20;99.90
40123;DHT22;25832;45.490;4.912;2022-09-28T11:10:27;19.20;99.90
40123;DHT22;25832;45.490;4.912;2022-09-28T11:12:54;19.20;99.90
40123;DHT22;25832;45.490;4.912;2022-09-28T11:15:27;19.10;99.90
40123;DHT22;25832;45.490;4.912;2022-09-28T11:17:54;19.00;99.90
40123;DHT22;25832;45.490;4.912;2022-09-28T11:22:56;19.00;99.90
40123;DHT22;25832;45.490;4.912;2022-09-28T11:25:24;19.00;99.90
40123;DHT22;25832;45.490;4.912;2022-09-28T11:33:12;19.30;99.90
40123;DHT22;25832;45.490;4.912;2022-09-28T11:49:37;20.10;99.60
40123;DHT22;25832;45.490;4.912;2022-09-28T11:52:13;20.30;99.40
40123;DHT22;25832;45.490;4.912;2022-09-28T11:54:51;20.50;98.20
40123;DHT22;25832;45.490;4.912;2022-09-28T11:57:27;20.70;97.10
40123;DHT22;25832;45.490;4.912;2022-09-28T12:00:04;20.70;97.20
40123;DHT22;25832;45.490;4.912;2022-09-28T12:05:22;20.70;99.10
40123;DHT22;25832;45.490;4.912;2022-09-28T12:10:20;20.60;99.10
40123;DHT22;25832;45.490;4.912;2022-09-28T12:13:10;20.60;99.30
40123;DHT22;25832;45.490;4.912;2022-09-28T12:15:46;20.50;99.30
40123;DHT22;25832;45.490;4.912;2022-09-28T12:18:32;20.50;98.70
40123;DHT22;25832;45.490;4.912;2022-09-28T12:23:50;20.20;98.70
40123;DHT22;25832;45.490;4.912;2022-09-28T12:29:19;19.90;99.30
40123;DHT22;25832;45.490;4.912;2022-09-28T12:31:57;19.70;99.40
40123;DHT22;25832;45.490;4.912;2022-09-28T12:34:24;19.60;99.10
40123;DHT22;25832;45.490;4.912;2022-09-28T12:56:00;18.70;99.90
40123;DHT22;25832;45.490;4.912;2022-09-28T13:09:17;18.40;99.90
40123;DHT22;25832;45.490;4.912;2022-09-28T13:17:48;18.50;99.90
40123;DHT22;25832;45.490;4.912;2022-09-28T13:25:32;18.30;99.90
40123;DHT22;25832;45.490;4.912;2022-09-28T13:28:02;18.30;99.90
40123;DHT22;25832;45.490;4.912;2022-09-28T13:30:28;18.30;99.90
40123;DHT22;25832;45.490;4.912;2022-09-28T13:32:56;18.30;99.90
40123;DHT22;25832;45.490;4.912;2022-09-28T13:35:23;18.30;99.90
40123;DHT22;25832;45.490;4.912;2022-09-28T13:58:05;16.50;99.90
40123;DHT22;25832;45.490;4.912;2022-09-28T14:16:29;15.10;99.90
40123;DHT22;25832;45.490;4.912;2022-09-28T14:19:17;15.10;99.90
40123;DHT22;25832;45.490;4.912;2022-09-28T14:29:25;15.30;99.90
40123;DHT22;25832;45.490;4.912;2022-09-28T14:31:57;15.30;99.90
40123;DHT22;25832;45.490;4.912;2022-09-28T14:37:16;15.40;99.90
40123;DHT22;25832;45.490;4.912;2022-09-28T14:40:18;15.40;99.90
40123;DHT22;25832;45.490;4.912;2022-09-28T14:43:26;15.50;99.90
40123;DHT22;25832;45.490;4.912;2022-09-28T14:59:17;15.70;99.90
40123;DHT22;25832;45.490;4.912;2022-09-28T15:01:54;15.70;99.90
40123;DHT22;25832;45.490;4.912;2022-09-28T15:04:23;15.70;99.90
40123;DHT22;25832;45.490;4.912;2022-09-28T15:06:51;15.70;99.90
40123;DHT22;25832;45.490;4.912;2022-09-28T15:09:30;15.80;99.90
40123;DHT22;25832;45.490;4.912;2022-09-28T15:12:31;15.80;99.90
40123;DHT22;25832;45.490;4.912;2022-09-28T15:15:05;15.80;99.90
40123;DHT22;25832;45.490;4.912;2022-09-28T15:17:34;15.70;99.90
40123;DHT22;25832;45.490;4.912;2022-09-28T15:20:20;15.70;99.90
40123;DHT22;25832;45.490;4.912;2022-09-28T15:22:49;15.70;99.90
40123;DHT22;25832;45.490;4.912;2022-09-28T15:25:18;15.70;99.90
40123;DHT22;25832;45.490;4.912;2022-09-28T15:27:53;15.60;99.90
40123;DHT22;25832;45.490;4.912;2022-09-28T15:30:29;15.70;99.90
40123;DHT22;25832;45.490;4.912;2022-09-28T15:32:57;15.70;99.90
40123;DHT22;25832;45.490;4.912;2022-09-28T15:35:58;15.70;99.90
40123;DHT22;25832;45.490;4.912;2022-09-28T15:38:26;15.70;99.90
40123;DHT22;25832;45.490;4.912;2022-09-28T15:40:53;15.70;99.90
40123;DHT22;25832;45.490;4.912;2022-09-28T15:43:30;15.80;99.90
40123;DHT22;25832;45.490;4.912;2022-09-28T15:46:12;15.80;99.90
40123;DHT22;25832;45.490;4.912;2022-09-28T15:48:54;15.90;99.90
40123;DHT22;25832;45.490;4.912;2022-09-28T15:51:22;16.00;99.90
40123;DHT22;25832;45.490;4.912;2022-09-28T15:56:17;16.20;99.90
40123;DHT22;25832;45.490;4.912;2022-09-28T15:58:43;16.30;99.90
40123;DHT22;25832;45.490;4.912;2022-09-28T16:01:34;16.40;99.90
40123;DHT22;25832;45.490;4.912;2022-09-28T16:04:37;16.50;99.90
40123;DHT22;25832;45.490;4.912;2022-09-28T16:15:12;16.50;99.90
40123;DHT22;25832;45.490;4.912;2022-09-28T16:17:40;16.70;99.90
40123;DHT22;25832;45.490;4.912;2022-09-28T16:20:24;16.90;99.90
40123;DHT22;25832;45.490;4.912;2022-09-28T16:22:52;17.20;99.90
40123;DHT22;25832;45.490;4.912;2022-09-28T16:25:21;17.40;99.90
40123;DHT22;25832;45.490;4.912;2022-09-28T16:27:50;17.60;99.90
40123;DHT22;25832;45.490;4.912;2022-09-28T16:33:00;17.70;99.90
40123;DHT22;25832;45.490;4.912;2022-09-28T16:35:30;17.80;99.90
40123;DHT22;25832;45.490;4.912;2022-09-28T16:40:22;17.50;99.90
40123;DHT22;25832;45.490;4.912;2022-09-28T16:42:48;17.40;99.90
40123;DHT22;25832;45.490;4.912;2022-09-28T16:45:18;17.20;99.90
40123;DHT22;25832;45.490;4.912;2022-09-28T16:47:45;17.10;99.90
40123;DHT22;25832;45.490;4.912;2022-09-28T16:50:14;16.90;99.90
40123;DHT22;25832;45.490;4.912;2022-09-28T16:52:41;16.90;99.90
40123;DHT22;25832;45.490;4.912;2022-09-28T16:55:26;16.80;99.90
40123;DHT22;25832;45.490;4.912;2022-09-28T16:57:52;16.60;99.90
40123;DHT22;25832;45.490;4.912;2022-09-28T17:00:20;16.50;99.90
40123;DHT22;25832;45.490;4.912;2022-09-28T17:02:48;16.40;99.90
40123;DHT22;25832;45.490;4.912;2022-09-28T17:05:15;16.20;99.90
40123;DHT22;25832;45.490;4.912;2022-09-28T17:07:42;16.10;99.90
40123;DHT22;25832;45.490;4.912;2022-09-28T17:10:15;16.00;99.90
40123;DHT22;25832;45.490;4.912;2022-09-28T17:12:41;16.00;99.90
40123;DHT22;25832;45.490;4.912;2022-09-28T17:15:07;15.90;99.90
40123;DHT22;25832;45.490;4.912;2022-09-28T17:17:33;15.80;99.90
40123;DHT22;25832;45.490;4.912;2022-09-28T17:20:00;15.70;99.90
40123;DHT22;25832;45.490;4.912;2022-09-28T17:22:30;15.50;99.90
40123;DHT22;25832;45.490;4.912;2022-09-28T17:24:55;15.40;99.90
40123;DHT22;25832;45.490;4.912;2022-09-28T17:27:21;15.30;99.90
40123;DHT22;25832;45.490;4.912;2022-09-28T17:29:47;15.30;99.90
40123;DHT22;25832;45.490;4.912;2022-09-28T17:32:17;15.30;99.90
40123;DHT22;25832;45.490;4.912;2022-09-28T17:34:46;15.20;99.90
40123;DHT22;25832;45.490;4.912;2022-09-28T17:37:13;15.10;99.90
40123;DHT22;25832;45.490;4.912;2022-09-28T17:39:39;15.00;99.90
40123;DHT22;25832;45.490;4.912;2022-09-28T17:42:04;14.90;99.90
40123;DHT22;25832;45.490;4.912;2022-09-28T17:44:30;14.90;99.90
40123;DHT22;25832;45.490;4.912;2022-09-28T17:46:56;14.90;99.90
40123;DHT22;25832;45.490;4.912;2022-09-28T17:49:21;14.80;99.90
40123;DHT22;25832;45.490;4.912;2022-09-28T17:51:47;14.80;99.90
40123;DHT22;25832;45.490;4.912;2022-09-28T17:54:14;14.80;99.90
40123;DHT22;25832;45.490;4.912;2022-09-28T17:56:44;14.70;99.90
40123;DHT22;25832;45.490;4.912;2022-09-28T17:59:12;14.70;99.90
40123;DHT22;25832;45.490;4.912;2022-09-28T18:01:39;14.70;99.90
40123;DHT22;25832;45.490;4.912;2022-09-28T18:04:06;14.70;99.90
40123;DHT22;25832;45.490;4.912;2022-09-28T18:06:33;14.70;99.90
40123;DHT22;25832;45.490;4.912;2022-09-28T18:09:01;14.60;99.90
40123;DHT22;25832;45.490;4.912;2022-09-28T18:11:27;14.60;99.90
40123;DHT22;25832;45.490;4.912;2022-09-28T18:13:53;14.60;99.90
40123;DHT22;25832;45.490;4.912;2022-09-28T18:16:19;14.50;99.90
40123;DHT22;25832;45.490;4.912;2022-09-28T18:18:46;14.50;99.90
40123;DHT22;25832;45.490;4.912;2022-09-28T18:21:12;14.40;99.90
40123;DHT22;25832;45.490;4.912;2022-09-28T18:23:38;14.40;99.90
40123;DHT22;25832;45.490;4.912;2022-09-28T18:26:09;14.40;99.90
40123;DHT22;25832;45.490;4.912;2022-09-28T18:28:35;14.40;99.90
40123;DHT22;25832;45.490;4.912;2022-09-28T18:31:08;14.40;99.90
40123;DHT22;25832;45.490;4.912;2022-09-28T18:33:34;14.40;99.90
40123;DHT22;25832;45.490;4.912;2022-09-28T18:36:01;14.40;99.90
40123;DHT22;25832;45.490;4.912;2022-09-28T18:38:27;14.30;99.90
40123;DHT22;25832;45.490;4.912;2022-09-28T18:40:52;14.30;99.90
40123;DHT22;25832;45.490;4.912;2022-09-28T18:43:19;14.30;99.90
40123;DHT22;25832;45.490;4.912;2022-09-28T18:45:46;14.20;99.90
40123;DHT22;25832;45.490;4.912;2022-09-28T18:48:12;14.20;99.90
40123;DHT22;25832;45.490;4.912;2022-09-28T18:50:39;14.10;99.90
40123;DHT22;25832;45.490;4.912;2022-09-28T18:53:05;14.20;99.90
40123;DHT22;25832;45.490;4.912;2022-09-28T18:55:41;14.10;99.90
40123;DHT22;25832;45.490;4.912;2022-09-28T18:58:08;14.10;99.90
40123;DHT22;25832;45.490;4.912;2022-09-28T19:00:37;14.00;99.90
40123;DHT22;25832;45.490;4.912;2022-09-28T19:03:05;14.00;99.90
40123;DHT22;25832;45.490;4.912;2022-09-28T19:05:30;13.90;99.90
40123;DHT22;25832;45.490;4.912;2022-09-28T19:07:58;13.90;99.90
40123;DHT22;25832;45.490;4.912;2022-09-28T19:10:24;13.90;99.90
40123;DHT22;25832;45.490;4.912;2022-09-28T19:12:49;14.00;99.90
40123;DHT22;25832;45.490;4.912;2022-09-28T19:15:19;14.00;99.90
40123;DHT22;25832;45.490;4.912;2022-09-28T19:17:47;14.00;99.90
40123;DHT22;25832;45.490;4.912;2022-09-28T19:20:13;13.90;99.90
40123;DHT22;25832;45.490;4.912;2022-09-28T19:22:38;13.90;99.90